Metar z pełnej godziny Komunikat METAR ze strony awiacja.imgw.pl Metar G00 EPRA METAR COR EPRA 160800Z 28018KT 9999 SCT030 07/01 Q1001=